Hot Springs, Montana
Current Conditions -  °F | °C
As of 4:04 AM on Wednesday 22 Oct 2014 (Local Time) from KMLP Reporting Station
Haze Haze  
Wind Chill: 29°   Ceiling: 100
Heat Index: 33°   Visibility: 0.75mi
Dew Point: 33°   Wind: 5mph
Humidity: 100%   Direction: NA
Pressure: 30.01"   Gusts: NA
Location:  47.61°N, 114.67°W
Report Text: KMLP 221004Z AUTO VRB04KT 3/4SM BR VV001 01/01 A3001 RMK AO2 T00060006
Loading
Personal Weather Stations






























Interactive Weather Map
Tropical Storm Tracking
New forecast layout! Learn more

10-Day Weather Forecast

Advertisements
Track Severe Weather on mobile